createdAt,value
2018-06-30T00:02:00.038Z,23.20
2018-06-30T00:04:28.370Z,23.10
2018-06-30T00:06:56.774Z,23.10
2018-06-30T00:09:25.090Z,23.10
2018-06-30T00:11:53.348Z,23.00
2018-06-30T00:14:21.713Z,23.00
2018-06-30T00:16:50.087Z,22.90
2018-06-30T00:19:18.752Z,22.90
2018-06-30T00:21:47.054Z,22.90
2018-06-30T00:24:15.340Z,22.80
2018-06-30T00:26:43.682Z,22.80
2018-06-30T00:29:12.065Z,22.80
2018-06-30T00:31:40.408Z,22.70
2018-06-30T00:34:09.087Z,22.70
2018-06-30T00:39:09.068Z,22.60
2018-06-30T00:41:37.294Z,22.60
2018-06-30T00:44:05.594Z,22.60
2018-06-30T00:46:34.075Z,22.50
2018-06-30T00:49:02.592Z,22.50
2018-06-30T00:51:30.916Z,22.50
2018-06-30T00:53:59.227Z,22.40
2018-06-30T00:56:27.571Z,22.40
2018-06-30T00:58:56.022Z,22.30
2018-06-30T01:01:24.255Z,22.30
2018-06-30T01:03:52.527Z,22.30
2018-06-30T01:06:20.800Z,22.20
2018-06-30T01:08:49.110Z,22.20
2018-06-30T01:11:17.329Z,22.20
2018-06-30T01:13:45.627Z,22.20
2018-06-30T01:16:13.907Z,22.10
2018-06-30T01:18:42.385Z,22.10
2018-06-30T01:21:10.746Z,22.10
2018-06-30T01:23:39.075Z,22.00
2018-06-30T01:26:07.503Z,22.00
2018-06-30T01:28:35.782Z,22.00
2018-06-30T01:31:04.096Z,21.90
2018-06-30T01:33:32.440Z,21.90
2018-06-30T01:36:02.023Z,21.90
2018-06-30T01:38:30.315Z,21.80
2018-06-30T01:40:58.582Z,21.80
2018-06-30T01:43:26.840Z,21.80
2018-06-30T01:45:55.369Z,21.80
2018-06-30T01:48:23.706Z,21.70
2018-06-30T01:50:51.953Z,21.70
2018-06-30T01:53:20.230Z,21.70
2018-06-30T01:55:48.475Z,21.60
2018-06-30T01:58:17.450Z,21.60
2018-06-30T02:00:45.748Z,21.60
2018-06-30T02:03:13.981Z,21.60
2018-06-30T02:05:42.291Z,21.50
2018-06-30T02:08:10.558Z,21.50
2018-06-30T02:10:38.804Z,21.40
2018-06-30T02:13:07.081Z,21.40
2018-06-30T02:15:35.357Z,21.40
2018-06-30T02:18:03.701Z,21.30
2018-06-30T02:20:31.982Z,21.30
2018-06-30T02:23:00.681Z,21.20
2018-06-30T02:25:28.949Z,21.20
2018-06-30T02:27:57.215Z,21.10
2018-06-30T02:30:25.565Z,21.00
2018-06-30T02:32:53.786Z,21.00
2018-06-30T02:35:22.131Z,21.00
2018-06-30T02:37:50.450Z,20.90
2018-06-30T02:40:18.708Z,20.90
2018-06-30T02:42:46.969Z,20.80
2018-06-30T02:47:43.300Z,20.70
2018-06-30T02:50:11.691Z,20.70
2018-06-30T02:52:39.984Z,20.70
2018-06-30T02:55:08.296Z,20.70
2018-06-30T02:57:36.812Z,20.70
2018-06-30T03:00:05.512Z,20.70
2018-06-30T03:02:33.795Z,20.60
2018-06-30T03:05:02.094Z,20.60
2018-06-30T03:09:58.356Z,20.60
2018-06-30T03:12:27.038Z,20.50
2018-06-30T03:14:55.542Z,20.50
2018-06-30T03:17:23.814Z,20.50
2018-06-30T03:19:52.124Z,20.50
2018-06-30T03:22:20.371Z,20.50
2018-06-30T03:24:48.740Z,20.40
2018-06-30T03:27:16.982Z,20.40
2018-06-30T03:29:45.235Z,20.40
2018-06-30T03:32:13.545Z,20.40
2018-06-30T03:34:41.806Z,20.40
2018-06-30T03:37:10.152Z,20.40
2018-06-30T03:39:39.070Z,20.40
2018-06-30T03:42:07.359Z,20.40
2018-06-30T03:44:35.630Z,20.40
2018-06-30T03:47:04.090Z,20.30
2018-06-30T03:49:32.423Z,20.30
2018-06-30T03:52:01.615Z,20.40
2018-06-30T03:54:30.540Z,20.30
2018-06-30T03:56:58.900Z,20.30
2018-06-30T03:59:27.218Z,20.30
2018-06-30T04:01:55.550Z,20.30
2018-06-30T04:04:23.884Z,20.30
2018-06-30T04:06:52.163Z,20.30
2018-06-30T04:09:20.431Z,20.30
2018-06-30T04:11:48.701Z,20.30
2018-06-30T04:14:17.059Z,20.30
2018-06-30T04:16:45.379Z,20.30
2018-06-30T04:19:16.800Z,20.30
2018-06-30T04:21:46.225Z,20.30
2018-06-30T04:24:14.542Z,20.40
2018-06-30T04:26:43.628Z,20.40
2018-06-30T04:29:12.678Z,20.40
2018-06-30T04:31:41.012Z,20.50
2018-06-30T04:34:09.467Z,20.50
2018-06-30T04:36:37.755Z,20.50
2018-06-30T04:39:08.114Z,20.50
2018-06-30T04:41:36.393Z,20.50
2018-06-30T04:44:05.427Z,20.60
2018-06-30T04:46:33.668Z,20.60
2018-06-30T04:49:01.886Z,20.60
2018-06-30T04:51:30.228Z,20.70
2018-06-30T04:53:58.588Z,20.70
2018-06-30T04:56:27.819Z,20.80
2018-06-30T04:58:56.148Z,20.80
2018-06-30T05:01:24.400Z,20.90
2018-06-30T05:03:52.860Z,20.90
2018-06-30T05:06:21.167Z,21.00
2018-06-30T05:08:49.544Z,21.00
2018-06-30T05:11:17.901Z,21.10
2018-06-30T05:13:46.192Z,21.20
2018-06-30T05:16:14.598Z,21.30
2018-06-30T05:18:42.930Z,21.30
2018-06-30T05:21:11.140Z,21.40
2018-06-30T05:23:39.380Z,21.40
2018-06-30T05:26:07.698Z,21.50
2018-06-30T05:28:36.008Z,21.60
2018-06-30T05:31:04.262Z,21.60
2018-06-30T05:33:32.605Z,21.70
2018-06-30T05:36:00.868Z,21.70
2018-06-30T05:38:29.727Z,21.80
2018-06-30T05:40:58.160Z,21.90
2018-06-30T05:43:26.441Z,21.90
2018-06-30T05:45:54.685Z,22.00
2018-06-30T05:50:50.942Z,22.20
2018-06-30T05:53:19.311Z,22.30
2018-06-30T05:55:47.535Z,22.40
2018-06-30T05:58:15.858Z,22.60
2018-06-30T06:00:44.452Z,22.70
2018-06-30T06:05:40.812Z,22.90
2018-06-30T06:08:09.085Z,23.00
2018-06-30T06:10:37.412Z,23.10
2018-06-30T06:13:05.749Z,23.20
2018-06-30T06:15:34.767Z,23.30
2018-06-30T06:18:03.124Z,23.40
2018-06-30T06:20:31.390Z,23.50
2018-06-30T06:22:59.612Z,23.60
2018-06-30T06:25:27.903Z,23.70
2018-06-30T06:27:56.211Z,23.70
2018-06-30T06:30:24.530Z,23.80
2018-06-30T06:32:52.868Z,23.90
2018-06-30T06:35:21.099Z,24.00
2018-06-30T06:37:49.457Z,24.10
2018-06-30T06:40:17.707Z,24.20
2018-06-30T06:42:46.044Z,24.20
2018-06-30T06:45:14.349Z,24.30
2018-06-30T06:47:42.639Z,24.30
2018-06-30T06:50:10.628Z,24.40
2018-06-30T06:52:39.108Z,24.50
2018-06-30T06:55:07.509Z,24.50
2018-06-30T06:57:36.998Z,24.60
2018-06-30T07:00:06.005Z,24.60
2018-06-30T07:02:34.272Z,24.70
2018-06-30T07:05:02.554Z,24.80
2018-06-30T07:07:30.843Z,24.80
2018-06-30T07:09:59.095Z,24.80
2018-06-30T07:12:27.389Z,24.80
2018-06-30T07:14:55.741Z,24.90
2018-06-30T07:17:24.000Z,25.00
2018-06-30T07:19:52.392Z,25.10
2018-06-30T07:22:20.645Z,25.20
2018-06-30T07:24:49.406Z,25.20
2018-06-30T07:27:17.694Z,25.30
2018-06-30T07:29:46.176Z,25.30
2018-06-30T07:32:14.554Z,25.40
2018-06-30T07:34:43.852Z,25.40
2018-06-30T07:39:40.179Z,25.60
2018-06-30T07:42:08.407Z,25.60
2018-06-30T07:44:36.810Z,25.70
2018-06-30T07:47:05.271Z,25.70
2018-06-30T07:49:33.552Z,25.70
2018-06-30T07:52:01.971Z,25.80
2018-06-30T07:54:30.249Z,25.90
2018-06-30T07:56:58.780Z,26.00
2018-06-30T07:59:27.181Z,26.10
2018-06-30T08:01:55.417Z,26.20
2018-06-30T08:04:23.953Z,26.20
2018-06-30T08:06:52.209Z,26.30
2018-06-30T08:09:20.495Z,26.30
2018-06-30T08:11:49.866Z,26.30
2018-06-30T08:14:18.167Z,26.30
2018-06-30T08:16:46.479Z,26.30
2018-06-30T08:19:14.749Z,26.40
2018-06-30T08:21:43.074Z,26.50
2018-06-30T08:24:11.383Z,26.60
2018-06-30T08:26:39.621Z,26.60
2018-06-30T08:29:07.893Z,26.70
2018-06-30T08:31:36.268Z,26.80
2018-06-30T08:34:04.593Z,26.80
2018-06-30T08:36:32.861Z,26.90
2018-06-30T08:39:01.245Z,26.90
2018-06-30T08:41:29.558Z,27.00
2018-06-30T08:43:57.783Z,27.10
2018-06-30T08:46:26.103Z,27.20
2018-06-30T08:48:54.394Z,27.30
2018-06-30T08:51:22.677Z,27.40
2018-06-30T08:53:53.401Z,27.50
2018-06-30T08:56:21.742Z,27.40
2018-06-30T08:58:50.096Z,27.40
2018-06-30T09:01:18.350Z,27.40
2018-06-30T09:03:46.702Z,27.50
2018-06-30T09:06:15.052Z,27.50
2018-06-30T09:08:43.405Z,27.70
2018-06-30T09:11:11.759Z,27.70
2018-06-30T09:13:40.100Z,27.80
2018-06-30T09:18:36.385Z,28.10
2018-06-30T09:21:04.982Z,28.20
2018-06-30T09:23:33.461Z,28.30
2018-06-30T09:26:01.756Z,28.40
2018-06-30T09:28:30.081Z,28.60
2018-06-30T09:30:59.298Z,28.80
2018-06-30T09:33:27.622Z,29.10
2018-06-30T09:35:56.008Z,29.30
2018-06-30T09:38:24.298Z,29.50
2018-06-30T09:40:52.593Z,29.80
2018-06-30T09:43:20.856Z,30.10
2018-06-30T09:45:49.125Z,30.40
2018-06-30T09:48:17.490Z,30.60
2018-06-30T09:50:45.768Z,31.00
2018-06-30T09:53:13.985Z,31.50
2018-06-30T09:55:42.280Z,32.00
2018-06-30T09:58:10.574Z,32.60
2018-06-30T10:00:44.382Z,33.10
2018-06-30T10:03:12.692Z,33.50
2018-06-30T10:05:40.925Z,33.70
2018-06-30T10:08:09.859Z,33.80
2018-06-30T10:10:38.168Z,33.80
2018-06-30T10:13:06.567Z,33.60
2018-06-30T10:15:35.426Z,33.30
2018-06-30T10:18:03.714Z,32.90
2018-06-30T10:20:32.034Z,32.50
2018-06-30T10:23:00.464Z,32.00
2018-06-30T10:25:28.928Z,31.50
2018-06-30T10:27:57.304Z,31.20
2018-06-30T10:30:25.864Z,30.90
2018-06-30T10:32:54.365Z,30.50
2018-06-30T10:35:22.770Z,30.20
2018-06-30T10:37:51.249Z,29.90
2018-06-30T10:40:19.519Z,29.70
2018-06-30T10:42:47.860Z,29.50
2018-06-30T10:45:16.362Z,29.40
2018-06-30T10:47:44.653Z,29.30
2018-06-30T10:50:13.659Z,29.20
2018-06-30T10:52:42.136Z,29.10
2018-06-30T10:55:10.470Z,29.10
2018-06-30T10:57:39.115Z,29.00
2018-06-30T11:00:07.956Z,28.90
2018-06-30T11:02:36.601Z,28.80
2018-06-30T11:05:05.434Z,28.70
2018-06-30T11:07:33.711Z,28.70
2018-06-30T11:12:30.087Z,28.60
2018-06-30T11:14:58.493Z,28.60
2018-06-30T11:17:26.805Z,28.60
2018-06-30T11:19:55.082Z,28.60
2018-06-30T11:22:23.408Z,28.60
2018-06-30T11:24:51.780Z,28.70
2018-06-30T11:27:20.093Z,28.70
2018-06-30T11:29:48.426Z,28.70
2018-06-30T11:32:16.730Z,28.80
2018-06-30T11:34:45.284Z,28.80
2018-06-30T11:37:13.585Z,28.70
2018-06-30T11:39:42.075Z,28.80
2018-06-30T11:42:10.397Z,28.90
2018-06-30T11:44:38.806Z,28.90
2018-06-30T11:47:07.364Z,29.00
2018-06-30T11:49:35.682Z,29.00
2018-06-30T11:52:04.104Z,29.00
2018-06-30T11:54:32.441Z,29.00
2018-06-30T11:57:00.712Z,29.00
2018-06-30T11:59:29.026Z,29.00
2018-06-30T12:01:57.307Z,29.10
2018-06-30T12:04:25.781Z,29.10
2018-06-30T12:06:54.348Z,29.10
2018-06-30T12:09:22.735Z,29.10
2018-06-30T12:11:51.098Z,29.10
2018-06-30T12:14:19.501Z,29.10
2018-06-30T12:16:47.948Z,29.10
2018-06-30T12:19:16.353Z,29.00
2018-06-30T12:21:44.690Z,28.90
2018-06-30T12:24:13.054Z,29.00
2018-06-30T12:26:41.328Z,28.90
2018-06-30T12:29:09.843Z,28.90
2018-06-30T12:31:38.136Z,28.90
2018-06-30T12:34:06.747Z,29.00
2018-06-30T12:36:35.067Z,29.00
2018-06-30T12:39:03.539Z,29.00
2018-06-30T12:41:32.048Z,29.10
2018-06-30T12:44:00.429Z,29.00
2018-06-30T12:46:29.165Z,28.90
2018-06-30T12:48:57.521Z,28.90
2018-06-30T12:51:25.813Z,29.00
2018-06-30T12:53:54.198Z,29.00
2018-06-30T12:56:22.595Z,29.00
2018-06-30T12:58:50.864Z,29.10
2018-06-30T13:01:19.160Z,29.10
2018-06-30T13:03:47.525Z,29.20
2018-06-30T13:08:43.941Z,29.20
2018-06-30T13:11:12.364Z,29.10
2018-06-30T13:13:40.747Z,29.20
2018-06-30T13:16:09.647Z,29.20
2018-06-30T13:18:38.922Z,29.30
2018-06-30T13:21:07.442Z,29.30
2018-06-30T13:23:35.765Z,29.20
2018-06-30T13:26:04.345Z,29.20
2018-06-30T13:28:33.019Z,29.20
2018-06-30T13:31:01.387Z,29.20
2018-06-30T13:33:30.491Z,29.20
2018-06-30T13:35:58.849Z,29.20
2018-06-30T13:38:27.834Z,29.30
2018-06-30T13:40:56.202Z,29.20
2018-06-30T13:43:24.583Z,29.30
2018-06-30T13:45:52.845Z,29.30
2018-06-30T13:48:21.254Z,29.20
2018-06-30T13:50:49.547Z,29.20
2018-06-30T13:53:17.867Z,29.20
2018-06-30T13:55:46.221Z,29.30
2018-06-30T13:58:14.512Z,29.30
2018-06-30T14:00:42.805Z,29.30
2018-06-30T14:03:11.149Z,29.20
2018-06-30T14:05:40.148Z,29.30
2018-06-30T14:08:08.606Z,29.30
2018-06-30T14:10:36.962Z,29.20
2018-06-30T14:13:05.298Z,29.20
2018-06-30T14:15:33.640Z,29.20
2018-06-30T14:18:02.013Z,29.20
2018-06-30T14:20:30.382Z,29.30
2018-06-30T14:22:58.701Z,29.20
2018-06-30T14:25:27.075Z,29.20
2018-06-30T14:27:55.373Z,29.30
2018-06-30T14:30:23.644Z,29.40
2018-06-30T14:32:52.057Z,29.30
2018-06-30T14:35:20.346Z,29.40
2018-06-30T14:37:48.678Z,29.40
2018-06-30T14:40:16.933Z,29.30
2018-06-30T14:42:45.264Z,29.40
2018-06-30T14:45:13.539Z,29.40
2018-06-30T14:47:41.858Z,29.40
2018-06-30T14:50:10.352Z,29.40
2018-06-30T14:52:38.856Z,29.50
2018-06-30T14:55:07.308Z,29.60
2018-06-30T14:57:35.704Z,29.60
2018-06-30T15:00:04.833Z,29.50
2018-06-30T15:02:33.074Z,29.40
2018-06-30T15:05:01.392Z,29.40
2018-06-30T15:07:29.765Z,29.50
2018-06-30T15:09:57.963Z,29.50
2018-06-30T15:12:26.915Z,29.50
2018-06-30T15:14:55.201Z,29.40
2018-06-30T15:17:23.556Z,29.50
2018-06-30T15:19:51.762Z,29.50
2018-06-30T15:22:20.216Z,29.60
2018-06-30T15:24:48.484Z,29.60
2018-06-30T15:27:17.916Z,29.70
2018-06-30T15:29:46.201Z,29.70
2018-06-30T15:32:15.003Z,29.60
2018-06-30T15:34:43.430Z,29.60
2018-06-30T15:37:11.916Z,29.70
2018-06-30T15:39:40.384Z,29.70
2018-06-30T15:42:08.704Z,29.70
2018-06-30T15:44:37.060Z,29.70
2018-06-30T15:47:05.483Z,29.60
2018-06-30T15:49:33.835Z,29.60
2018-06-30T15:52:02.326Z,29.60
2018-06-30T15:54:30.895Z,29.70
2018-06-30T15:56:59.358Z,29.70
2018-06-30T15:59:27.661Z,29.70
2018-06-30T16:01:56.024Z,29.80
2018-06-30T16:04:24.410Z,29.70
2018-06-30T16:06:52.762Z,29.80
2018-06-30T16:09:21.050Z,29.70
2018-06-30T16:11:49.427Z,29.70
2018-06-30T16:14:17.734Z,29.60
2018-06-30T16:16:46.216Z,29.60
2018-06-30T16:19:14.580Z,29.60
2018-06-30T16:21:42.886Z,29.50
2018-06-30T16:24:11.287Z,29.60
2018-06-30T16:26:39.619Z,29.60
2018-06-30T16:29:07.950Z,29.50
2018-06-30T16:31:36.277Z,29.50
2018-06-30T16:34:04.652Z,29.50
2018-06-30T16:36:32.998Z,29.50
2018-06-30T16:39:01.369Z,29.40
2018-06-30T16:41:30.354Z,29.40
2018-06-30T16:43:58.717Z,29.50
2018-06-30T16:46:27.055Z,29.50
2018-06-30T16:48:55.471Z,29.50
2018-06-30T16:51:23.747Z,29.50
2018-06-30T16:53:52.090Z,29.50
2018-06-30T16:56:20.426Z,29.40
2018-06-30T16:58:49.625Z,29.40
2018-06-30T17:03:46.044Z,29.20
2018-06-30T17:06:14.431Z,29.20
2018-06-30T17:08:42.883Z,29.20
2018-06-30T17:11:11.205Z,29.20
2018-06-30T17:13:39.566Z,29.20
2018-06-30T17:16:07.961Z,29.20
2018-06-30T17:18:36.570Z,29.20
2018-06-30T17:21:04.951Z,29.10
2018-06-30T17:23:33.200Z,29.20
2018-06-30T17:26:01.549Z,29.20
2018-06-30T17:28:30.187Z,29.20
2018-06-30T17:30:58.439Z,29.10
2018-06-30T17:33:26.881Z,29.10
2018-06-30T17:38:23.240Z,29.10
2018-06-30T17:40:51.839Z,29.10
2018-06-30T17:45:48.151Z,29.00
2018-06-30T17:48:16.508Z,28.90
2018-06-30T17:50:45.251Z,28.80
2018-06-30T17:53:13.891Z,28.80
2018-06-30T17:55:42.131Z,28.80
2018-06-30T17:58:10.408Z,28.70
2018-06-30T18:00:38.679Z,28.70
2018-06-30T18:03:07.023Z,28.60
2018-06-30T18:05:35.315Z,28.40
2018-06-30T18:08:03.646Z,28.40
2018-06-30T18:10:32.349Z,28.40
2018-06-30T18:13:00.600Z,28.20
2018-06-30T18:15:28.888Z,28.20
2018-06-30T18:17:57.172Z,28.10
2018-06-30T18:20:25.421Z,28.10
2018-06-30T18:22:54.247Z,28.10
2018-06-30T18:25:22.499Z,28.10
2018-06-30T18:27:50.807Z,28.10
2018-06-30T18:30:19.086Z,28.10
2018-06-30T18:32:47.480Z,28.10
2018-06-30T18:37:44.278Z,27.80
2018-06-30T18:40:12.615Z,27.80
2018-06-30T18:42:40.881Z,27.70
2018-06-30T18:45:09.140Z,27.60
2018-06-30T18:47:37.431Z,27.60
2018-06-30T18:50:05.824Z,27.50
2018-06-30T18:52:34.197Z,27.50
2018-06-30T18:55:02.460Z,27.40
2018-06-30T18:57:30.741Z,27.40
2018-06-30T18:59:59.091Z,27.30
2018-06-30T19:02:27.391Z,27.30
2018-06-30T19:04:55.707Z,27.20
2018-06-30T19:07:24.419Z,27.10
2018-06-30T19:09:52.859Z,27.00
2018-06-30T19:12:21.021Z,27.00
2018-06-30T19:14:49.287Z,26.90
2018-06-30T19:17:17.649Z,26.90
2018-06-30T19:19:45.962Z,26.80
2018-06-30T19:22:14.223Z,26.80
2018-06-30T19:24:42.480Z,26.70
2018-06-30T19:27:10.752Z,26.70
2018-06-30T19:29:39.068Z,26.60
2018-06-30T19:32:07.380Z,26.60
2018-06-30T19:34:35.617Z,26.50
2018-06-30T19:37:03.973Z,26.50
2018-06-30T19:39:33.101Z,26.40
2018-06-30T19:42:01.405Z,26.30
2018-06-30T19:44:29.657Z,26.20
2018-06-30T19:46:57.968Z,26.20
2018-06-30T19:49:26.278Z,26.20
2018-06-30T19:51:54.554Z,26.10
2018-06-30T19:54:22.916Z,26.00
2018-06-30T19:56:51.320Z,25.90
2018-06-30T19:59:19.571Z,25.90
2018-06-30T20:01:47.850Z,25.80
2018-06-30T20:04:16.141Z,25.80
2018-06-30T20:06:45.998Z,25.70
2018-06-30T20:09:14.231Z,25.70
2018-06-30T20:11:42.574Z,25.60
2018-06-30T20:14:10.875Z,25.60
2018-06-30T20:19:07.216Z,25.40
2018-06-30T20:21:35.854Z,25.30
2018-06-30T20:24:04.159Z,25.30
2018-06-30T20:26:32.449Z,25.10
2018-06-30T20:29:00.717Z,25.10
2018-06-30T20:31:29.028Z,25.10
2018-06-30T20:33:57.446Z,25.10
2018-06-30T20:36:25.668Z,25.00
2018-06-30T20:38:53.962Z,24.90
2018-06-30T20:41:22.247Z,24.90
2018-06-30T20:43:50.591Z,24.80
2018-06-30T20:46:18.981Z,24.80
2018-06-30T20:48:47.270Z,24.80
2018-06-30T20:51:15.484Z,24.70
2018-06-30T20:53:43.816Z,24.70
2018-06-30T20:56:12.180Z,24.70
2018-06-30T20:58:41.035Z,24.60
2018-06-30T21:01:10.316Z,24.50
2018-06-30T21:03:38.586Z,24.40
2018-06-30T21:06:06.869Z,24.40
2018-06-30T21:08:35.176Z,24.40
2018-06-30T21:11:03.484Z,24.30
2018-06-30T21:13:31.792Z,24.30
2018-06-30T21:16:00.115Z,24.20
2018-06-30T21:18:28.679Z,24.20
2018-06-30T21:20:58.252Z,24.20
2018-06-30T21:23:26.547Z,24.10
2018-06-30T21:25:55.102Z,24.00
2018-06-30T21:28:23.373Z,24.00
2018-06-30T21:30:51.673Z,24.00
2018-06-30T21:33:20.111Z,23.90
2018-06-30T21:35:48.356Z,23.90
2018-06-30T21:38:16.648Z,23.80
2018-06-30T21:40:44.874Z,23.70
2018-06-30T21:43:13.112Z,23.70
2018-06-30T21:45:41.407Z,23.60
2018-06-30T21:48:09.995Z,23.60
2018-06-30T21:50:40.045Z,23.60
2018-06-30T21:53:08.460Z,23.60
2018-06-30T21:55:36.723Z,23.50
2018-06-30T21:58:05.908Z,23.50
2018-06-30T22:00:49.408Z,23.40
2018-06-30T22:03:20.552Z,23.40
2018-06-30T22:05:48.861Z,23.30
2018-06-30T22:08:17.164Z,23.30
2018-06-30T22:10:45.542Z,23.30
2018-06-30T22:13:13.778Z,23.20
2018-06-30T22:15:42.093Z,23.20
2018-06-30T22:18:10.412Z,23.10
2018-06-30T22:20:38.740Z,23.10
2018-06-30T22:23:07.009Z,23.00
2018-06-30T22:25:35.312Z,23.00
2018-06-30T22:28:05.087Z,23.00
2018-06-30T22:30:33.374Z,22.90
2018-06-30T22:33:02.191Z,22.90
2018-06-30T22:35:30.426Z,22.90
2018-06-30T22:37:58.711Z,22.80
2018-06-30T22:40:27.051Z,22.80
2018-06-30T22:42:55.381Z,22.80
2018-06-30T22:45:23.742Z,22.80
2018-06-30T22:47:52.061Z,22.70
2018-06-30T22:50:20.332Z,22.70
2018-06-30T22:52:48.647Z,22.70
2018-06-30T22:55:16.948Z,22.60
2018-06-30T22:57:45.311Z,22.70
2018-06-30T23:00:16.866Z,22.60
2018-06-30T23:02:45.124Z,22.60
2018-06-30T23:05:13.449Z,22.50
2018-06-30T23:07:41.736Z,22.50
2018-06-30T23:10:11.349Z,22.40
2018-06-30T23:15:08.042Z,22.40
2018-06-30T23:17:36.368Z,22.50
2018-06-30T23:20:05.299Z,22.50
2018-06-30T23:23:06.164Z,22.40
2018-06-30T23:25:34.940Z,22.40
2018-06-30T23:28:03.440Z,22.40
2018-06-30T23:30:32.220Z,22.30
2018-06-30T23:33:00.516Z,22.30
2018-06-30T23:35:29.939Z,22.20
2018-06-30T23:37:59.208Z,22.20
2018-06-30T23:40:27.535Z,22.20
2018-06-30T23:42:55.839Z,22.10
2018-06-30T23:45:24.423Z,22.10
2018-06-30T23:47:53.613Z,22.10
2018-06-30T23:50:23.273Z,22.00
2018-06-30T23:52:51.764Z,22.00
2018-06-30T23:55:20.082Z,22.00
2018-06-30T23:57:48.363Z,21.90
